Friday, October 31, 2014, 4:15 AM EDT

KOXB, Ocean City Municipal Airport

Location: Berlin, MD, United States Lat: 38.317
Local Time: 4:15 AM EDT ( 8:15 GMT) Lon: -75.117
Time Zone: US/Eastern Elev: 13 ft

Show me the last for .
Show Decoded

2014-10-31 02:53 METAR KOXB 310653Z AUTO 35004KT 10SM CLR 06/04 A2999 RMK AO2 SLP154 T00560039
                 TSNO =
2014-10-31 01:53 METAR KOXB 310553Z AUTO 34005KT 10SM CLR 06/04 A3000 RMK AO2 SLP160 T00610039
                 10078 20056 58007 TSNO =
2014-10-31 00:53 METAR KOXB 310453Z AUTO 33005KT 10SM CLR 07/04 A3001 RMK AO2 SLP163 T00670039
                 401720056 TSNO =
2014-10-30 23:53 METAR KOXB 310353Z AUTO 34005KT 10SM CLR 07/04 A3002 RMK AO2 SLP165 T00670039
                 TSNO =
2014-10-30 22:53 METAR KOXB 310253Z AUTO 34004KT 10SM CLR 07/04 A3002 RMK AO2 SLP166 T00720044
                 50001 TSNO =
2014-10-30 21:53 METAR KOXB 310153Z AUTO 32003KT 10SM CLR 07/04 A3003 RMK AO2 SLP168 T00720044
                 TSNO =
2014-10-30 20:53 METAR KOXB 310053Z AUTO 33003KT 10SM FEW055 07/04 A3002 RMK AO2 SLP166 T00720044
                 TSNO =
2014-10-30 19:53 METAR KOXB 302353Z AUTO 31003KT 10SM CLR 06/05 A3002 RMK AO2 SLP166 T00610050
                 10172 20061 51013 TSNO =
2014-10-30 18:53 METAR KOXB 302253Z AUTO 00000KT 10SM CLR 08/06 A3002 RMK AO2 SLP164 T00780056
                 TSNO =
2014-10-30 17:53 METAR KOXB 302153Z AUTO 31003KT 10SM CLR 13/04 A3000 RMK AO2 SLP157 T01330039
                 TSNO =
2014-10-30 16:53 METAR KOXB 302053Z AUTO 32005KT 10SM CLR 16/04 A2999 RMK AO2 SLP153 T01610039
                 55003 TSNO =
2014-10-30 15:53 METAR KOXB 301953Z AUTO 28006KT 10SM FEW050 16/04 A2998 RMK AO2 SLP152 T01610044
                 TSNO =
2014-10-30 14:53 METAR KOXB 301853Z AUTO VRB03KT 10SM BKN049 17/06 A2998 RMK AO2 SLP153 T01720061
                 TSNO =
2014-10-30 13:53 METAR KOXB 301753Z AUTO 05005KT 10SM SCT046 BKN060 16/06 A2999 RMK AO2 SLP156
                 T01560061 10167 20089 58009 TSNO =
2014-10-30 12:53 METAR KOXB 301653Z AUTO VRB03KT 10SM FEW040 16/06 A3001 RMK AO2 SLP161 T01560061
                 TSNO =
2014-10-30 11:53 METAR KOXB 301553Z AUTO 36006KT 10SM FEW034 16/09 A3003 RMK AO2 SLP168 T01610089
                 TSNO =
2014-10-30 10:53 METAR KOXB 301453Z AUTO 33005KT 10SM CLR 16/10 A3002 RMK AO2 SLP166 T01610100
                 50006 TSNO =
2014-10-30 09:53 METAR KOXB 301353Z AUTO 6SM HZ CLR 14/11 A3002 RMK AO2 SLP166 T01390106 TSNO =
2014-10-30 08:53 METAR KOXB 301253Z AUTO 4SM BR CLR 12/10 A3002 RMK AO2 SLP165 T01170100 TSNO $ =
2014-10-30 07:53 METAR KOXB 301153Z AUTO 4SM BR CLR 09/08 A3001 RMK AO2 SLP160 60000 T00940083
                 10117 20094 53009 TSNO =
2014-10-30 06:53 METAR KOXB 301053Z AUTO 00000KT 6SM BR BKN120 10/09 A2999 RMK AO2 SLP156
                 T01000089 TSNO =
2014-10-30 05:53 METAR KOXB 300953Z AUTO 33003KT 8SM OVC110 11/09 A2998 RMK AO2 SLP152 T01060094
                 TSNO =
2014-10-30 04:53 METAR KOXB 300853Z AUTO 32003KT 10SM BKN110 11/09 A2998 RMK AO2 SLP151 60000
                 T01060094 53005 TSNO =

Support USWX by starting your Amazon purchase here.